Pagina principale
METAR-TAF:

METAR-TAF

Aeroporti :

La Chaux-de-Fonds, Svizzera

latitudine: 47-05-03N, longitudine: 006-47-37E, altezza: 1027 m

Osservazione

Il bollettino è stato emesso 27 minuti fa, alle 15:50 UTC
Vento 6 kt da nord-est, variando fra nord e est/nord-est
Temperature 19°C
Umidità 68%
Pressione 1024 hPa
Visibilità 10 km o più
nessuna nube inferiore a 1500 m e nessun cumulonembo

METAR: LSGC 181550Z 04006KT 010V070 CAVOK 19/13 Q1024

Ora: 18:17 (16:17 UTC)

Previsione

Il bollettino è stato emesso 1 ora e 52 minuti fa, alle 14:25 UTC
Previsione valida dal 18 alle 15 UTC al 18 alle 24 UTC
Vento 7 kt da nord-est
Visibilità 10 km o più
Poco nuvoloso ad un'altezza di 2500 ft
Nubi sparse ad un'altezza di 3500 ft

TAF: LSGC 181425Z 1815/1824 05007KT 9999 FEW025 SCT035

Osservazioni e previsioni meteorologiche di più di 4000 aeroporti (messaggi METAR e TAF).

Le stazioni disponibili sono rappresentate dai dischi gialli e rossi sulla carta.

Puntare il mouse per vedere il nome della stazione.

Clicca sopra per visualizzare le osservazioni e previsioni meteorologiche.

Per cambiare la mappa : fare clic sui pulsanti verdi con una croce nera per ingrandire, il pulsante verde con un trattino per diminuire, o sulla freccia verde per le mappe adiacenti.


METAR-TAF: